sensor_id;sensor_type;location;lat;lon;timestamp;temperature;humidity
13470;DHT22;6807;48.682;9.032;2022-08-01T00:58:39;16.00;99.90
13470;DHT22;6807;48.682;9.032;2022-08-01T01:06:07;15.80;99.90
13470;DHT22;6807;48.682;9.032;2022-08-01T01:08:42;15.80;99.90
13470;DHT22;6807;48.682;9.032;2022-08-01T01:11:13;15.80;99.90
13470;DHT22;6807;48.682;9.032;2022-08-01T01:16:18;15.70;99.90
13470;DHT22;6807;48.682;9.032;2022-08-01T01:18:47;15.70;99.90
13470;DHT22;6807;48.682;9.032;2022-08-01T01:21:39;15.70;99.90
13470;DHT22;6807;48.682;9.032;2022-08-01T01:24:21;15.80;99.90
13470;DHT22;6807;48.682;9.032;2022-08-01T01:26:57;15.70;99.90
13470;DHT22;6807;48.682;9.032;2022-08-01T01:29:30;15.80;99.90
13470;DHT22;6807;48.682;9.032;2022-08-01T01:32:04;15.70;99.90
13470;DHT22;6807;48.682;9.032;2022-08-01T01:34:35;15.70;99.90
13470;DHT22;6807;48.682;9.032;2022-08-01T01:37:06;15.70;99.90
13470;DHT22;6807;48.682;9.032;2022-08-01T01:39:34;15.60;99.90
13470;DHT22;6807;48.682;9.032;2022-08-01T01:42:03;15.60;99.90
13470;DHT22;6807;48.682;9.032;2022-08-01T01:47:00;15.70;99.90
13470;DHT22;6807;48.682;9.032;2022-08-01T01:51:58;15.40;99.90
13470;DHT22;6807;48.682;9.032;2022-08-01T01:54:29;15.50;99.90
13470;DHT22;6807;48.682;9.032;2022-08-01T01:56:58;15.50;99.90
13470;DHT22;6807;48.682;9.032;2022-08-01T01:59:28;15.50;99.90
13470;DHT22;6807;48.682;9.032;2022-08-01T02:01:59;15.60;99.90
13470;DHT22;6807;48.682;9.032;2022-08-01T02:11:51;15.60;99.90
13470;DHT22;6807;48.682;9.032;2022-08-01T02:16:48;15.80;99.90
13470;DHT22;6807;48.682;9.032;2022-08-01T02:19:17;15.50;99.90
13470;DHT22;6807;48.682;9.032;2022-08-01T02:21:49;15.40;99.90
13470;DHT22;6807;48.682;9.032;2022-08-01T02:27:02;15.60;99.90
13470;DHT22;6807;48.682;9.032;2022-08-01T02:29:35;15.50;99.90
13470;DHT22;6807;48.682;9.032;2022-08-01T02:34:35;15.50;99.90
13470;DHT22;6807;48.682;9.032;2022-08-01T02:37:03;15.40;99.90
13470;DHT22;6807;48.682;9.032;2022-08-01T02:42:02;15.40;99.90
13470;DHT22;6807;48.682;9.032;2022-08-01T02:44:34;15.40;99.90
13470;DHT22;6807;48.682;9.032;2022-08-01T02:47:02;15.40;99.90
13470;DHT22;6807;48.682;9.032;2022-08-01T02:49:33;15.30;99.90
13470;DHT22;6807;48.682;9.032;2022-08-01T02:52:01;15.30;99.90
13470;DHT22;6807;48.682;9.032;2022-08-01T02:54:30;15.30;99.90
13470;DHT22;6807;48.682;9.032;2022-08-01T02:57:00;15.30;99.90
13470;DHT22;6807;48.682;9.032;2022-08-01T02:59:30;15.40;99.90
13470;DHT22;6807;48.682;9.032;2022-08-01T03:01:59;15.40;99.90
13470;DHT22;6807;48.682;9.032;2022-08-01T03:04:27;15.40;99.90
13470;DHT22;6807;48.682;9.032;2022-08-01T03:14:23;15.80;99.90
13470;DHT22;6807;48.682;9.032;2022-08-01T03:16:53;15.80;99.90
13470;DHT22;6807;48.682;9.032;2022-08-01T03:19:23;15.90;99.90
13470;DHT22;6807;48.682;9.032;2022-08-01T03:24:21;16.10;99.90
13470;DHT22;6807;48.682;9.032;2022-08-01T03:26:51;16.10;99.90
13470;DHT22;6807;48.682;9.032;2022-08-01T03:29:22;16.00;99.90
13470;DHT22;6807;48.682;9.032;2022-08-01T03:36:49;15.90;99.90
13470;DHT22;6807;48.682;9.032;2022-08-01T03:39:17;15.90;99.90
13470;DHT22;6807;48.682;9.032;2022-08-01T03:41:51;15.80;99.90
13470;DHT22;6807;48.682;9.032;2022-08-01T03:44:25;15.80;99.90
13470;DHT22;6807;48.682;9.032;2022-08-01T03:46:58;15.70;99.90
13470;DHT22;6807;48.682;9.032;2022-08-01T04:36:27;15.90;99.90
13470;DHT22;6807;48.682;9.032;2022-08-01T04:41:25;15.90;99.90
13470;DHT22;6807;48.682;9.032;2022-08-01T04:53:48;16.10;99.90
13470;DHT22;6807;48.682;9.032;2022-08-01T05:40:35;18.10;99.90
13470;DHT22;6807;48.682;9.032;2022-08-01T06:51:52;23.30;99.90
13470;DHT22;6807;48.682;9.032;2022-08-01T08:08:05;28.30;99.90
13470;DHT22;6807;48.682;9.032;2022-08-01T08:10:32;28.50;99.90
13470;DHT22;6807;48.682;9.032;2022-08-01T08:13:01;28.10;99.90
13470;DHT22;6807;48.682;9.032;2022-08-01T08:15:29;28.30;99.90
13470;DHT22;6807;48.682;9.032;2022-08-01T08:17:56;28.80;99.90
13470;DHT22;6807;48.682;9.032;2022-08-01T08:20:23;28.20;99.90
13470;DHT22;6807;48.682;9.032;2022-08-01T08:22:52;27.80;99.90
13470;DHT22;6807;48.682;9.032;2022-08-01T08:25:19;28.10;99.90
13470;DHT22;6807;48.682;9.032;2022-08-01T08:27:47;27.80;99.90
13470;DHT22;6807;48.682;9.032;2022-08-01T08:30:14;27.60;99.90
13470;DHT22;6807;48.682;9.032;2022-08-01T08:32:42;26.60;99.90
13470;DHT22;6807;48.682;9.032;2022-08-01T08:35:09;27.00;99.90
13470;DHT22;6807;48.682;9.032;2022-08-01T08:37:37;27.30;99.90
13470;DHT22;6807;48.682;9.032;2022-08-01T08:40:05;28.20;99.90
13470;DHT22;6807;48.682;9.032;2022-08-01T08:42:32;28.80;99.90
13470;DHT22;6807;48.682;9.032;2022-08-01T08:45:00;29.20;99.90
13470;DHT22;6807;48.682;9.032;2022-08-01T08:47:28;28.40;99.90
13470;DHT22;6807;48.682;9.032;2022-08-01T08:49:57;29.10;99.90
13470;DHT22;6807;48.682;9.032;2022-08-01T08:52:24;29.50;99.90
13470;DHT22;6807;48.682;9.032;2022-08-01T08:54:52;29.00;99.90
13470;DHT22;6807;48.682;9.032;2022-08-01T08:57:20;28.80;99.90
13470;DHT22;6807;48.682;9.032;2022-08-01T08:59:47;28.70;99.90
13470;DHT22;6807;48.682;9.032;2022-08-01T09:02:17;27.90;99.90
13470;DHT22;6807;48.682;9.032;2022-08-01T09:04:44;27.50;99.90
13470;DHT22;6807;48.682;9.032;2022-08-01T09:07:14;26.60;99.90
13470;DHT22;6807;48.682;9.032;2022-08-01T09:09:41;26.10;99.90
13470;DHT22;6807;48.682;9.032;2022-08-01T09:12:08;26.00;99.90
13470;DHT22;6807;48.682;9.032;2022-08-01T09:14:44;26.20;99.90
13470;DHT22;6807;48.682;9.032;2022-08-01T09:17:11;27.10;99.90
13470;DHT22;6807;48.682;9.032;2022-08-01T09:19:40;27.00;99.90
13470;DHT22;6807;48.682;9.032;2022-08-01T09:22:09;27.10;99.90
13470;DHT22;6807;48.682;9.032;2022-08-01T09:24:38;26.60;99.90
13470;DHT22;6807;48.682;9.032;2022-08-01T09:27:16;26.30;99.90
13470;DHT22;6807;48.682;9.032;2022-08-01T09:29:44;26.40;99.90
13470;DHT22;6807;48.682;9.032;2022-08-01T09:32:11;26.00;99.90
13470;DHT22;6807;48.682;9.032;2022-08-01T09:34:38;26.10;99.90
13470;DHT22;6807;48.682;9.032;2022-08-01T09:37:05;26.90;99.90
13470;DHT22;6807;48.682;9.032;2022-08-01T09:39:35;27.80;99.90
13470;DHT22;6807;48.682;9.032;2022-08-01T09:42:20;27.20;99.90
13470;DHT22;6807;48.682;9.032;2022-08-01T09:44:47;27.10;99.90
13470;DHT22;6807;48.682;9.032;2022-08-01T09:47:15;27.40;99.90
13470;DHT22;6807;48.682;9.032;2022-08-01T09:49:43;27.40;99.90
13470;DHT22;6807;48.682;9.032;2022-08-01T09:52:12;28.20;99.90
13470;DHT22;6807;48.682;9.032;2022-08-01T09:54:40;27.60;99.90
13470;DHT22;6807;48.682;9.032;2022-08-01T09:57:14;26.70;99.90
13470;DHT22;6807;48.682;9.032;2022-08-01T09:59:42;26.30;99.90
13470;DHT22;6807;48.682;9.032;2022-08-01T10:02:11;26.00;99.90
13470;DHT22;6807;48.682;9.032;2022-08-01T10:04:47;25.70;99.90
13470;DHT22;6807;48.682;9.032;2022-08-01T10:07:17;25.50;99.90
13470;DHT22;6807;48.682;9.032;2022-08-01T10:09:45;25.30;99.90
13470;DHT22;6807;48.682;9.032;2022-08-01T10:12:15;26.40;99.90
13470;DHT22;6807;48.682;9.032;2022-08-01T10:14:44;28.80;99.90
13470;DHT22;6807;48.682;9.032;2022-08-01T10:17:14;31.50;99.90
13470;DHT22;6807;48.682;9.032;2022-08-01T10:19:42;32.70;99.90
13470;DHT22;6807;48.682;9.032;2022-08-01T10:22:10;32.40;99.90
13470;DHT22;6807;48.682;9.032;2022-08-01T10:24:40;30.40;99.90
13470;DHT22;6807;48.682;9.032;2022-08-01T10:27:09;29.30;99.90
13470;DHT22;6807;48.682;9.032;2022-08-01T10:29:41;28.30;99.90
13470;DHT22;6807;48.682;9.032;2022-08-01T10:32:09;28.50;99.90
13470;DHT22;6807;48.682;9.032;2022-08-01T10:34:37;31.10;99.90
13470;DHT22;6807;48.682;9.032;2022-08-01T10:37:05;32.60;99.90
13470;DHT22;6807;48.682;9.032;2022-08-01T10:39:32;31.40;99.90
13470;DHT22;6807;48.682;9.032;2022-08-01T10:42:00;30.20;99.90
13470;DHT22;6807;48.682;9.032;2022-08-01T10:44:28;29.60;99.90
13470;DHT22;6807;48.682;9.032;2022-08-01T10:47:03;29.30;99.90
13470;DHT22;6807;48.682;9.032;2022-08-01T10:49:34;29.40;99.90
13470;DHT22;6807;48.682;9.032;2022-08-01T10:52:03;29.50;99.90
13470;DHT22;6807;48.682;9.032;2022-08-01T10:54:38;30.10;99.90
13470;DHT22;6807;48.682;9.032;2022-08-01T10:57:06;31.70;99.90
13470;DHT22;6807;48.682;9.032;2022-08-01T10:59:33;29.60;99.90
13470;DHT22;6807;48.682;9.032;2022-08-01T11:02:03;28.40;99.90
13470;DHT22;6807;48.682;9.032;2022-08-01T11:04:34;28.00;99.90
13470;DHT22;6807;48.682;9.032;2022-08-01T11:07:07;27.30;99.90
13470;DHT22;6807;48.682;9.032;2022-08-01T11:09:40;26.60;99.90
13470;DHT22;6807;48.682;9.032;2022-08-01T11:12:10;26.50;99.90
13470;DHT22;6807;48.682;9.032;2022-08-01T11:17:45;27.20;99.90
13470;DHT22;6807;48.682;9.032;2022-08-01T11:20:15;28.30;99.90
13470;DHT22;6807;48.682;9.032;2022-08-01T11:26:11;28.90;99.90
13470;DHT22;6807;48.682;9.032;2022-08-01T11:28:38;28.40;99.90
13470;DHT22;6807;48.682;9.032;2022-08-01T11:31:24;28.10;99.90
13470;DHT22;6807;48.682;9.032;2022-08-01T11:33:53;29.60;99.90
13470;DHT22;6807;48.682;9.032;2022-08-01T11:36:20;31.50;99.90
13470;DHT22;6807;48.682;9.032;2022-08-01T11:38:50;30.40;99.90
13470;DHT22;6807;48.682;9.032;2022-08-01T11:41:39;29.60;99.90
13470;DHT22;6807;48.682;9.032;2022-08-01T11:44:07;28.10;99.90
13470;DHT22;6807;48.682;9.032;2022-08-01T11:46:52;28.20;99.90
13470;DHT22;6807;48.682;9.032;2022-08-01T11:52:25;27.40;99.90
13470;DHT22;6807;48.682;9.032;2022-08-01T11:54:54;27.20;99.90
13470;DHT22;6807;48.682;9.032;2022-08-01T11:57:24;26.90;99.90
13470;DHT22;6807;48.682;9.032;2022-08-01T11:59:53;26.70;99.90
13470;DHT22;6807;48.682;9.032;2022-08-01T12:02:21;26.40;99.90
13470;DHT22;6807;48.682;9.032;2022-08-01T12:04:52;26.30;99.90
13470;DHT22;6807;48.682;9.032;2022-08-01T12:07:19;26.30;99.90
13470;DHT22;6807;48.682;9.032;2022-08-01T12:09:47;26.00;99.90
13470;DHT22;6807;48.682;9.032;2022-08-01T12:12:17;26.10;99.90
13470;DHT22;6807;48.682;9.032;2022-08-01T12:14:52;26.30;99.90
13470;DHT22;6807;48.682;9.032;2022-08-01T12:17:27;27.20;99.90
13470;DHT22;6807;48.682;9.032;2022-08-01T12:19:55;29.80;99.90
13470;DHT22;6807;48.682;9.032;2022-08-01T12:22:23;31.50;99.90
13470;DHT22;6807;48.682;9.032;2022-08-01T12:24:50;32.90;99.90
13470;DHT22;6807;48.682;9.032;2022-08-01T12:27:24;33.60;99.90
13470;DHT22;6807;48.682;9.032;2022-08-01T12:29:54;33.70;99.90
13470;DHT22;6807;48.682;9.032;2022-08-01T12:32:27;34.80;99.90
13470;DHT22;6807;48.682;9.032;2022-08-01T12:34:58;34.20;99.90
13470;DHT22;6807;48.682;9.032;2022-08-01T12:37:27;31.80;99.90
13470;DHT22;6807;48.682;9.032;2022-08-01T12:39:54;31.10;99.90
13470;DHT22;6807;48.682;9.032;2022-08-01T12:42:22;29.70;99.90
13470;DHT22;6807;48.682;9.032;2022-08-01T12:44:50;28.60;99.90
13470;DHT22;6807;48.682;9.032;2022-08-01T12:47:20;28.10;99.90
13470;DHT22;6807;48.682;9.032;2022-08-01T12:49:48;27.90;99.90
13470;DHT22;6807;48.682;9.032;2022-08-01T12:52:15;28.70;99.90
13470;DHT22;6807;48.682;9.032;2022-08-01T12:55:00;29.80;99.90
13470;DHT22;6807;48.682;9.032;2022-08-01T12:57:27;32.00;99.90
13470;DHT22;6807;48.682;9.032;2022-08-01T13:00:05;33.70;99.90
13470;DHT22;6807;48.682;9.032;2022-08-01T13:02:34;34.80;99.90
13470;DHT22;6807;48.682;9.032;2022-08-01T13:05:02;35.20;99.90
13470;DHT22;6807;48.682;9.032;2022-08-01T13:07:43;35.50;99.90
13470;DHT22;6807;48.682;9.032;2022-08-01T13:10:11;32.90;99.90
13470;DHT22;6807;48.682;9.032;2022-08-01T13:12:39;31.30;99.90
13470;DHT22;6807;48.682;9.032;2022-08-01T13:15:27;30.60;99.90
13470;DHT22;6807;48.682;9.032;2022-08-01T13:17:59;29.80;99.90
13470;DHT22;6807;48.682;9.032;2022-08-01T13:20:30;28.90;99.90
13470;DHT22;6807;48.682;9.032;2022-08-01T13:23:16;28.60;99.90
13470;DHT22;6807;48.682;9.032;2022-08-01T13:25:52;28.60;99.90
13470;DHT22;6807;48.682;9.032;2022-08-01T13:28:20;28.30;99.90
13470;DHT22;6807;48.682;9.032;2022-08-01T13:30:52;28.50;99.90
13470;DHT22;6807;48.682;9.032;2022-08-01T13:33:20;30.50;99.90
13470;DHT22;6807;48.682;9.032;2022-08-01T13:35:49;32.90;99.90
13470;DHT22;6807;48.682;9.032;2022-08-01T13:38:16;33.70;99.90
13470;DHT22;6807;48.682;9.032;2022-08-01T13:40:44;33.80;99.90
13470;DHT22;6807;48.682;9.032;2022-08-01T13:43:11;34.30;99.90
13470;DHT22;6807;48.682;9.032;2022-08-01T13:45:40;34.40;99.90
13470;DHT22;6807;48.682;9.032;2022-08-01T13:48:07;33.90;99.90
13470;DHT22;6807;48.682;9.032;2022-08-01T13:50:35;31.70;99.90
13470;DHT22;6807;48.682;9.032;2022-08-01T13:53:02;30.80;99.90
13470;DHT22;6807;48.682;9.032;2022-08-01T13:55:29;30.00;99.90
13470;DHT22;6807;48.682;9.032;2022-08-01T13:58:02;29.60;99.90
13470;DHT22;6807;48.682;9.032;2022-08-01T14:00:30;29.30;99.90
13470;DHT22;6807;48.682;9.032;2022-08-01T14:02:57;28.80;99.90
13470;DHT22;6807;48.682;9.032;2022-08-01T14:05:24;29.40;99.90
13470;DHT22;6807;48.682;9.032;2022-08-01T14:07:52;29.10;99.90
13470;DHT22;6807;48.682;9.032;2022-08-01T14:10:19;28.90;99.90
13470;DHT22;6807;48.682;9.032;2022-08-01T14:12:46;28.60;99.90
13470;DHT22;6807;48.682;9.032;2022-08-01T14:15:13;28.50;99.90
13470;DHT22;6807;48.682;9.032;2022-08-01T14:17:40;28.80;99.90
13470;DHT22;6807;48.682;9.032;2022-08-01T14:20:08;29.40;99.90
13470;DHT22;6807;48.682;9.032;2022-08-01T14:22:35;29.40;99.90
13470;DHT22;6807;48.682;9.032;2022-08-01T14:25:05;30.50;99.90
13470;DHT22;6807;48.682;9.032;2022-08-01T14:27:32;31.70;99.90
13470;DHT22;6807;48.682;9.032;2022-08-01T14:30:01;32.60;99.90
13470;DHT22;6807;48.682;9.032;2022-08-01T14:32:28;32.60;99.90
13470;DHT22;6807;48.682;9.032;2022-08-01T14:34:55;32.40;99.90
13470;DHT22;6807;48.682;9.032;2022-08-01T14:37:22;32.50;99.90
13470;DHT22;6807;48.682;9.032;2022-08-01T14:39:49;33.20;99.90
13470;DHT22;6807;48.682;9.032;2022-08-01T14:42:18;32.90;99.90
13470;DHT22;6807;48.682;9.032;2022-08-01T14:44:45;32.80;99.90
13470;DHT22;6807;48.682;9.032;2022-08-01T14:47:12;33.40;99.90
13470;DHT22;6807;48.682;9.032;2022-08-01T14:49:38;32.90;99.90
13470;DHT22;6807;48.682;9.032;2022-08-01T14:52:05;32.20;99.90
13470;DHT22;6807;48.682;9.032;2022-08-01T14:54:32;32.20;99.90
13470;DHT22;6807;48.682;9.032;2022-08-01T14:56:59;32.30;99.90
13470;DHT22;6807;48.682;9.032;2022-08-01T14:59:27;32.40;99.90
13470;DHT22;6807;48.682;9.032;2022-08-01T15:01:54;32.50;99.90
13470;DHT22;6807;48.682;9.032;2022-08-01T15:04:21;32.20;99.90
13470;DHT22;6807;48.682;9.032;2022-08-01T15:06:48;31.60;99.90
13470;DHT22;6807;48.682;9.032;2022-08-01T15:09:15;30.70;99.90
13470;DHT22;6807;48.682;9.032;2022-08-01T15:11:42;30.50;99.90
13470;DHT22;6807;48.682;9.032;2022-08-01T15:14:08;30.50;99.90
13470;DHT22;6807;48.682;9.032;2022-08-01T15:16:54;30.80;99.90
13470;DHT22;6807;48.682;9.032;2022-08-01T15:19:21;30.30;99.90
13470;DHT22;6807;48.682;9.032;2022-08-01T15:21:48;30.00;99.90
13470;DHT22;6807;48.682;9.032;2022-08-01T15:24:14;29.60;99.90
13470;DHT22;6807;48.682;9.032;2022-08-01T15:26:41;29.40;99.90
13470;DHT22;6807;48.682;9.032;2022-08-01T15:29:08;29.20;99.90
13470;DHT22;6807;48.682;9.032;2022-08-01T15:31:35;28.90;99.90
13470;DHT22;6807;48.682;9.032;2022-08-01T15:34:03;29.00;99.90
13470;DHT22;6807;48.682;9.032;2022-08-01T15:36:30;29.10;99.90
13470;DHT22;6807;48.682;9.032;2022-08-01T15:38:57;29.00;99.90
13470;DHT22;6807;48.682;9.032;2022-08-01T15:41:24;28.90;99.90
13470;DHT22;6807;48.682;9.032;2022-08-01T15:43:51;28.70;99.90
13470;DHT22;6807;48.682;9.032;2022-08-01T15:46:18;28.50;99.90
13470;DHT22;6807;48.682;9.032;2022-08-01T15:48:44;28.40;99.90
13470;DHT22;6807;48.682;9.032;2022-08-01T15:51:13;28.40;99.90
13470;DHT22;6807;48.682;9.032;2022-08-01T15:53:40;28.50;99.90
13470;DHT22;6807;48.682;9.032;2022-08-01T15:56:08;28.20;99.90
13470;DHT22;6807;48.682;9.032;2022-08-01T15:58:34;28.40;99.90
13470;DHT22;6807;48.682;9.032;2022-08-01T16:01:01;28.30;99.90
13470;DHT22;6807;48.682;9.032;2022-08-01T16:03:28;28.00;99.90
13470;DHT22;6807;48.682;9.032;2022-08-01T16:05:55;27.80;99.90
13470;DHT22;6807;48.682;9.032;2022-08-01T16:08:24;27.40;99.90
13470;DHT22;6807;48.682;9.032;2022-08-01T16:10:51;27.20;99.90
13470;DHT22;6807;48.682;9.032;2022-08-01T16:13:17;27.20;99.90
13470;DHT22;6807;48.682;9.032;2022-08-01T16:15:44;26.80;99.90
13470;DHT22;6807;48.682;9.032;2022-08-01T16:18:11;26.70;99.90
13470;DHT22;6807;48.682;9.032;2022-08-01T16:20:39;26.60;99.90
13470;DHT22;6807;48.682;9.032;2022-08-01T16:23:06;26.50;99.90
13470;DHT22;6807;48.682;9.032;2022-08-01T16:25:34;26.30;99.90
13470;DHT22;6807;48.682;9.032;2022-08-01T16:28:02;26.30;99.90
13470;DHT22;6807;48.682;9.032;2022-08-01T16:30:29;26.40;99.90
13470;DHT22;6807;48.682;9.032;2022-08-01T16:32:56;26.30;99.90
13470;DHT22;6807;48.682;9.032;2022-08-01T16:35:23;26.30;99.90
13470;DHT22;6807;48.682;9.032;2022-08-01T16:37:50;26.10;99.90
13470;DHT22;6807;48.682;9.032;2022-08-01T16:40:17;26.00;99.90
13470;DHT22;6807;48.682;9.032;2022-08-01T16:42:45;25.90;99.90
13470;DHT22;6807;48.682;9.032;2022-08-01T16:45:12;25.80;99.90
13470;DHT22;6807;48.682;9.032;2022-08-01T16:47:40;25.70;99.90
13470;DHT22;6807;48.682;9.032;2022-08-01T16:50:07;25.60;99.90
13470;DHT22;6807;48.682;9.032;2022-08-01T16:52:35;25.50;99.90
13470;DHT22;6807;48.682;9.032;2022-08-01T16:55:02;25.50;99.90
13470;DHT22;6807;48.682;9.032;2022-08-01T16:57:29;25.40;99.90
13470;DHT22;6807;48.682;9.032;2022-08-01T17:00:04;25.30;99.90
13470;DHT22;6807;48.682;9.032;2022-08-01T17:02:32;25.30;99.90
13470;DHT22;6807;48.682;9.032;2022-08-01T17:04:58;25.20;99.90
13470;DHT22;6807;48.682;9.032;2022-08-01T17:07:25;25.20;99.90
13470;DHT22;6807;48.682;9.032;2022-08-01T17:09:52;25.20;99.90
13470;DHT22;6807;48.682;9.032;2022-08-01T17:12:19;25.10;99.90
13470;DHT22;6807;48.682;9.032;2022-08-01T17:14:46;25.10;99.90
13470;DHT22;6807;48.682;9.032;2022-08-01T17:17:14;25.20;99.90
13470;DHT22;6807;48.682;9.032;2022-08-01T17:19:41;25.20;99.90
13470;DHT22;6807;48.682;9.032;2022-08-01T17:22:08;25.30;99.90
13470;DHT22;6807;48.682;9.032;2022-08-01T17:24:35;25.30;99.90
13470;DHT22;6807;48.682;9.032;2022-08-01T17:27:02;25.40;99.90
13470;DHT22;6807;48.682;9.032;2022-08-01T17:29:29;25.50;99.90
13470;DHT22;6807;48.682;9.032;2022-08-01T17:31:56;25.50;99.90
13470;DHT22;6807;48.682;9.032;2022-08-01T17:34:25;25.50;99.90
13470;DHT22;6807;48.682;9.032;2022-08-01T17:36:52;25.50;99.90
13470;DHT22;6807;48.682;9.032;2022-08-01T17:39:19;25.40;99.90
13470;DHT22;6807;48.682;9.032;2022-08-01T17:41:46;25.30;99.90
13470;DHT22;6807;48.682;9.032;2022-08-01T17:44:13;25.10;99.90
13470;DHT22;6807;48.682;9.032;2022-08-01T17:46:40;25.10;99.90
13470;DHT22;6807;48.682;9.032;2022-08-01T17:49:07;25.00;99.90
13470;DHT22;6807;48.682;9.032;2022-08-01T17:51:35;24.90;99.90
13470;DHT22;6807;48.682;9.032;2022-08-01T17:54:02;24.90;99.90
13470;DHT22;6807;48.682;9.032;2022-08-01T17:56:29;24.80;99.90
13470;DHT22;6807;48.682;9.032;2022-08-01T17:58:56;24.70;99.90
13470;DHT22;6807;48.682;9.032;2022-08-01T18:01:23;24.70;99.90
13470;DHT22;6807;48.682;9.032;2022-08-01T18:03:50;24.60;99.90
13470;DHT22;6807;48.682;9.032;2022-08-01T18:06:17;24.60;99.90
13470;DHT22;6807;48.682;9.032;2022-08-01T18:08:46;24.50;99.90
13470;DHT22;6807;48.682;9.032;2022-08-01T18:11:13;24.50;99.90
13470;DHT22;6807;48.682;9.032;2022-08-01T18:13:41;24.40;99.90
13470;DHT22;6807;48.682;9.032;2022-08-01T18:16:08;24.30;99.90
13470;DHT22;6807;48.682;9.032;2022-08-01T18:18:37;24.30;99.90
13470;DHT22;6807;48.682;9.032;2022-08-01T18:21:05;24.20;99.90
13470;DHT22;6807;48.682;9.032;2022-08-01T18:23:33;24.10;99.90
13470;DHT22;6807;48.682;9.032;2022-08-01T18:26:01;24.00;99.90
13470;DHT22;6807;48.682;9.032;2022-08-01T18:28:30;24.00;99.90
13470;DHT22;6807;48.682;9.032;2022-08-01T18:30:57;23.90;99.90
13470;DHT22;6807;48.682;9.032;2022-08-01T18:33:24;23.90;99.90
13470;DHT22;6807;48.682;9.032;2022-08-01T18:35:51;23.80;99.90
13470;DHT22;6807;48.682;9.032;2022-08-01T18:38:18;23.70;99.90
13470;DHT22;6807;48.682;9.032;2022-08-01T18:40:44;23.70;99.90
13470;DHT22;6807;48.682;9.032;2022-08-01T18:43:13;23.70;99.90
13470;DHT22;6807;48.682;9.032;2022-08-01T18:45:39;23.60;99.90
13470;DHT22;6807;48.682;9.032;2022-08-01T18:48:06;23.50;99.90
13470;DHT22;6807;48.682;9.032;2022-08-01T18:50:33;23.40;99.90
13470;DHT22;6807;48.682;9.032;2022-08-01T18:53:00;23.40;99.90
13470;DHT22;6807;48.682;9.032;2022-08-01T18:55:27;23.30;99.90
13470;DHT22;6807;48.682;9.032;2022-08-01T18:57:54;23.30;99.90
13470;DHT22;6807;48.682;9.032;2022-08-01T19:00:23;23.10;99.90
13470;DHT22;6807;48.682;9.032;2022-08-01T19:02:50;22.90;99.90
13470;DHT22;6807;48.682;9.032;2022-08-01T19:05:17;22.60;99.90
13470;DHT22;6807;48.682;9.032;2022-08-01T19:07:44;22.40;99.90
13470;DHT22;6807;48.682;9.032;2022-08-01T19:10:11;22.20;99.90
13470;DHT22;6807;48.682;9.032;2022-08-01T19:12:38;22.20;99.90
13470;DHT22;6807;48.682;9.032;2022-08-01T19:15:06;22.10;99.90
13470;DHT22;6807;48.682;9.032;2022-08-01T19:17:34;22.10;99.90
13470;DHT22;6807;48.682;9.032;2022-08-01T19:20:01;22.00;99.90
13470;DHT22;6807;48.682;9.032;2022-08-01T19:22:28;21.80;99.90
13470;DHT22;6807;48.682;9.032;2022-08-01T19:24:55;21.50;99.90
13470;DHT22;6807;48.682;9.032;2022-08-01T19:27:25;21.20;99.90
13470;DHT22;6807;48.682;9.032;2022-08-01T19:30:05;20.90;99.90
13470;DHT22;6807;48.682;9.032;2022-08-01T19:32:35;20.20;99.90
13470;DHT22;6807;48.682;9.032;2022-08-01T19:35:07;19.80;99.90
13470;DHT22;6807;48.682;9.032;2022-08-01T19:37:37;19.50;99.90
13470;DHT22;6807;48.682;9.032;2022-08-01T19:40:07;19.40;99.90
13470;DHT22;6807;48.682;9.032;2022-08-01T19:42:39;19.20;99.90
13470;DHT22;6807;48.682;9.032;2022-08-01T19:45:08;19.10;99.90
13470;DHT22;6807;48.682;9.032;2022-08-01T19:47:36;19.00;99.90
13470;DHT22;6807;48.682;9.032;2022-08-01T19:50:04;18.80;99.90
13470;DHT22;6807;48.682;9.032;2022-08-01T19:52:32;18.70;99.90
13470;DHT22;6807;48.682;9.032;2022-08-01T19:55:04;18.70;99.90
13470;DHT22;6807;48.682;9.032;2022-08-01T19:57:31;18.70;99.90
13470;DHT22;6807;48.682;9.032;2022-08-01T20:00:01;18.70;99.90
13470;DHT22;6807;48.682;9.032;2022-08-01T20:02:28;18.60;99.90
13470;DHT22;6807;48.682;9.032;2022-08-01T20:04:57;18.70;99.90
13470;DHT22;6807;48.682;9.032;2022-08-01T20:07:24;18.50;99.90
13470;DHT22;6807;48.682;9.032;2022-08-01T20:09:52;18.60;99.90
13470;DHT22;6807;48.682;9.032;2022-08-01T20:12:21;18.60;99.90
13470;DHT22;6807;48.682;9.032;2022-08-01T20:14:50;18.60;99.90
13470;DHT22;6807;48.682;9.032;2022-08-01T20:17:18;18.70;99.90
13470;DHT22;6807;48.682;9.032;2022-08-01T20:19:45;18.70;99.90
13470;DHT22;6807;48.682;9.032;2022-08-01T20:22:17;18.60;99.90
13470;DHT22;6807;48.682;9.032;2022-08-01T20:24:48;18.50;99.90
13470;DHT22;6807;48.682;9.032;2022-08-01T20:27:22;18.50;99.90
13470;DHT22;6807;48.682;9.032;2022-08-01T20:29:50;18.50;99.90
13470;DHT22;6807;48.682;9.032;2022-08-01T20:32:19;19.30;99.90
13470;DHT22;6807;48.682;9.032;2022-08-01T20:34:46;18.50;99.90
13470;DHT22;6807;48.682;9.032;2022-08-01T20:37:16;19.40;99.90
13470;DHT22;6807;48.682;9.032;2022-08-01T20:39:46;18.60;99.90
13470;DHT22;6807;48.682;9.032;2022-08-01T20:42:14;18.50;99.90
13470;DHT22;6807;48.682;9.032;2022-08-01T20:44:42;18.80;99.90
13470;DHT22;6807;48.682;9.032;2022-08-01T20:47:09;19.00;99.90
13470;DHT22;6807;48.682;9.032;2022-08-01T20:49:36;19.00;99.90
13470;DHT22;6807;48.682;9.032;2022-08-01T20:52:03;18.40;99.90
13470;DHT22;6807;48.682;9.032;2022-08-01T20:54:32;18.40;99.90
13470;DHT22;6807;48.682;9.032;2022-08-01T20:57:00;18.40;99.90
13470;DHT22;6807;48.682;9.032;2022-08-01T20:59:36;18.50;99.90
13470;DHT22;6807;48.682;9.032;2022-08-01T21:02:07;18.50;99.90
13470;DHT22;6807;48.682;9.032;2022-08-01T21:04:50;19.40;99.90
13470;DHT22;6807;48.682;9.032;2022-08-01T21:07:23;18.80;99.90
13470;DHT22;6807;48.682;9.032;2022-08-01T21:09:58;18.60;99.90
13470;DHT22;6807;48.682;9.032;2022-08-01T21:12:35;19.10;99.90
13470;DHT22;6807;48.682;9.032;2022-08-01T21:15:14;18.50;99.90
13470;DHT22;6807;48.682;9.032;2022-08-01T21:17:45;18.50;99.90
13470;DHT22;6807;48.682;9.032;2022-08-01T21:20:15;18.40;99.90
13470;DHT22;6807;48.682;9.032;2022-08-01T21:22:51;18.40;99.90
13470;DHT22;6807;48.682;9.032;2022-08-01T21:25:23;18.30;99.90
13470;DHT22;6807;48.682;9.032;2022-08-01T21:27:51;18.60;99.90
13470;DHT22;6807;48.682;9.032;2022-08-01T21:30:22;16.70;99.90
13470;DHT22;6807;48.682;9.032;2022-08-01T21:32:51;18.30;99.90
13470;DHT22;6807;48.682;9.032;2022-08-01T21:35:21;18.20;99.90
13470;DHT22;6807;48.682;9.032;2022-08-01T21:37:48;18.20;99.90
13470;DHT22;6807;48.682;9.032;2022-08-01T21:40:17;18.10;99.90
13470;DHT22;6807;48.682;9.032;2022-08-01T21:42:47;18.10;99.90
13470;DHT22;6807;48.682;9.032;2022-08-01T21:45:18;18.10;99.90
13470;DHT22;6807;48.682;9.032;2022-08-01T21:47:47;18.10;99.90
13470;DHT22;6807;48.682;9.032;2022-08-01T21:50:14;18.20;99.90
13470;DHT22;6807;48.682;9.032;2022-08-01T21:52:43;18.00;99.90
13470;DHT22;6807;48.682;9.032;2022-08-01T21:55:20;18.00;99.90